createdAt,value
2023-03-26T00:01:17.677Z,8.03
2023-03-26T00:03:47.388Z,8.09
2023-03-26T00:06:16.937Z,8.11
2023-03-26T00:08:45.389Z,8.18
2023-03-26T00:11:13.881Z,8.18
2023-03-26T00:13:44.037Z,8.28
2023-03-26T00:16:13.982Z,8.30
2023-03-26T00:18:44.506Z,8.21
2023-03-26T00:21:14.400Z,8.32
2023-03-26T00:23:41.829Z,8.18
2023-03-26T00:26:12.224Z,8.19
2023-03-26T00:28:41.065Z,8.20
2023-03-26T00:31:10.173Z,8.22
2023-03-26T00:33:38.720Z,8.23
2023-03-26T00:36:10.149Z,8.18
2023-03-26T00:38:39.560Z,8.23
2023-03-26T00:41:18.084Z,8.19
2023-03-26T00:43:46.853Z,8.26
2023-03-26T00:46:14.009Z,8.26
2023-03-26T00:48:45.887Z,8.29
2023-03-26T00:51:15.976Z,8.26
2023-03-26T00:53:44.395Z,8.28
2023-03-26T00:56:11.425Z,8.31
2023-03-26T00:58:38.876Z,8.31
2023-03-26T01:04:08.064Z,8.25
2023-03-26T01:06:38.202Z,8.20
2023-03-26T01:09:16.632Z,8.15
2023-03-26T01:11:44.804Z,8.08
2023-03-26T01:14:21.968Z,8.12
2023-03-26T01:16:53.110Z,8.11
2023-03-26T01:19:54.006Z,8.20
2023-03-26T01:22:24.796Z,8.29
2023-03-26T01:24:57.010Z,8.17
2023-03-26T01:27:41.646Z,8.05
2023-03-26T01:30:28.669Z,8.13
2023-03-26T01:33:44.246Z,8.16
2023-03-26T01:36:11.450Z,7.93
2023-03-26T01:39:00.583Z,7.97
2023-03-26T01:41:33.807Z,7.87
2023-03-26T01:44:43.406Z,7.95
2023-03-26T01:47:10.858Z,7.85
2023-03-26T01:49:37.684Z,7.88
2023-03-26T01:52:12.142Z,7.91
2023-03-26T01:54:39.168Z,7.99
2023-03-26T01:57:47.836Z,7.87
2023-03-26T02:00:39.629Z,7.82
2023-03-26T02:03:23.422Z,7.75
2023-03-26T02:05:56.862Z,7.75
2023-03-26T02:08:36.135Z,7.72
2023-03-26T02:11:06.000Z,7.60
2023-03-26T02:13:32.935Z,7.62
2023-03-26T02:16:01.978Z,7.63
2023-03-26T02:18:39.389Z,7.68
2023-03-26T02:21:14.354Z,7.48
2023-03-26T02:23:47.206Z,7.54
2023-03-26T02:26:16.400Z,7.53
2023-03-26T02:28:43.392Z,7.54
2023-03-26T02:31:11.487Z,7.64
2023-03-26T02:33:38.713Z,7.64
2023-03-26T02:36:06.600Z,7.69
2023-03-26T02:38:35.438Z,7.68
2023-03-26T02:41:03.030Z,7.67
2023-03-26T02:43:30.107Z,7.76
2023-03-26T02:45:57.568Z,7.73
2023-03-26T02:48:24.758Z,7.76
2023-03-26T02:50:54.817Z,7.81
2023-03-26T02:53:24.350Z,7.75
2023-03-26T02:55:51.652Z,7.83
2023-03-26T02:58:18.498Z,7.83
2023-03-26T03:00:47.182Z,7.89
2023-03-26T03:03:14.539Z,7.94
2023-03-26T03:05:43.429Z,7.95
2023-03-26T03:08:10.737Z,8.01
2023-03-26T03:10:38.572Z,7.98
2023-03-26T03:13:08.159Z,7.95
2023-03-26T03:15:36.137Z,7.94
2023-03-26T03:18:03.267Z,8.00
2023-03-26T03:20:30.679Z,7.97
2023-03-26T03:22:57.894Z,8.10
2023-03-26T03:25:26.565Z,8.00
2023-03-26T03:27:54.338Z,8.05
2023-03-26T03:30:21.623Z,7.98
2023-03-26T03:32:48.596Z,8.03
2023-03-26T03:35:15.936Z,8.01
2023-03-26T03:37:43.090Z,7.94
2023-03-26T03:40:14.095Z,7.98
2023-03-26T03:42:41.335Z,8.05
2023-03-26T03:45:09.209Z,7.97
2023-03-26T03:47:36.620Z,7.96
2023-03-26T03:50:04.820Z,7.97
2023-03-26T03:52:31.706Z,7.98
2023-03-26T03:55:00.719Z,7.91
2023-03-26T03:57:29.155Z,7.86
2023-03-26T03:59:59.341Z,7.82
2023-03-26T04:02:30.851Z,7.83
2023-03-26T04:05:00.656Z,7.81
2023-03-26T04:07:32.918Z,7.89
2023-03-26T04:10:00.553Z,7.87
2023-03-26T04:12:28.851Z,7.81
2023-03-26T04:14:56.001Z,7.68
2023-03-26T04:17:23.728Z,7.72
2023-03-26T04:19:53.234Z,7.72
2023-03-26T04:22:20.157Z,7.70
2023-03-26T04:24:49.140Z,7.59
2023-03-26T04:27:19.909Z,7.52
2023-03-26T04:29:50.148Z,7.56
2023-03-26T04:32:26.787Z,7.47
2023-03-26T04:34:53.784Z,7.46
2023-03-26T04:37:28.505Z,7.56
2023-03-26T04:39:55.570Z,7.51
2023-03-26T04:42:23.054Z,7.48
2023-03-26T04:44:51.438Z,7.37
2023-03-26T04:47:18.907Z,7.43
2023-03-26T04:49:47.984Z,7.35
2023-03-26T04:52:15.549Z,7.35
2023-03-26T04:54:45.201Z,7.32
2023-03-26T04:57:33.291Z,7.32
2023-03-26T05:00:00.950Z,7.32
2023-03-26T05:02:27.848Z,7.18
2023-03-26T05:04:54.835Z,7.06
2023-03-26T05:07:25.650Z,6.96
2023-03-26T05:09:53.236Z,6.92
2023-03-26T05:12:20.363Z,6.99
2023-03-26T05:14:47.220Z,6.94
2023-03-26T05:17:15.678Z,6.94
2023-03-26T05:19:42.750Z,6.90
2023-03-26T05:22:10.042Z,6.90
2023-03-26T05:24:36.923Z,6.88
2023-03-26T05:27:03.693Z,6.93
2023-03-26T05:29:30.853Z,6.87
2023-03-26T05:31:58.368Z,6.98
2023-03-26T05:34:27.469Z,7.02
2023-03-26T05:36:54.340Z,7.06
2023-03-26T05:39:25.974Z,7.06
2023-03-26T05:41:53.326Z,7.17
2023-03-26T05:44:20.374Z,7.19
2023-03-26T05:46:47.694Z,7.27
2023-03-26T05:49:15.159Z,7.26
2023-03-26T05:51:42.129Z,7.22
2023-03-26T05:54:09.050Z,7.20
2023-03-26T05:56:36.346Z,7.26
2023-03-26T05:59:03.750Z,7.29
2023-03-26T06:01:31.078Z,7.22
2023-03-26T06:03:58.405Z,7.18
2023-03-26T06:06:25.334Z,7.19
2023-03-26T06:09:01.846Z,7.22
2023-03-26T06:11:31.219Z,7.28
2023-03-26T06:13:58.501Z,7.35
2023-03-26T06:16:27.368Z,7.40
2023-03-26T06:18:56.281Z,7.53
2023-03-26T06:21:25.533Z,7.54
2023-03-26T06:23:53.354Z,7.59
2023-03-26T06:26:21.194Z,7.67
2023-03-26T06:28:48.264Z,7.74
2023-03-26T06:31:17.561Z,7.90
2023-03-26T06:33:44.397Z,7.92
2023-03-26T06:36:13.052Z,8.02
2023-03-26T06:38:41.192Z,8.06
2023-03-26T06:41:09.410Z,8.01
2023-03-26T06:43:37.505Z,8.04
2023-03-26T06:46:04.622Z,7.94
2023-03-26T06:48:32.832Z,8.01
2023-03-26T06:51:01.477Z,7.98
2023-03-26T06:53:28.781Z,8.03
2023-03-26T06:55:56.282Z,8.14
2023-03-26T06:58:23.207Z,8.16
2023-03-26T07:00:55.161Z,8.30
2023-03-26T07:03:23.819Z,8.38
2023-03-26T07:05:51.056Z,8.44
2023-03-26T07:08:19.901Z,8.46
2023-03-26T07:10:47.570Z,8.54
2023-03-26T07:13:15.220Z,8.75
2023-03-26T07:15:43.018Z,8.75
2023-03-26T07:18:10.186Z,8.86
2023-03-26T07:20:38.876Z,8.69
2023-03-26T07:23:09.085Z,8.71
2023-03-26T07:25:37.788Z,8.71
2023-03-26T07:28:27.799Z,8.74
2023-03-26T07:31:35.042Z,8.90
2023-03-26T07:34:37.837Z,8.95
2023-03-26T07:37:19.321Z,9.00
2023-03-26T07:39:56.200Z,9.05
2023-03-26T07:43:17.569Z,9.05
2023-03-26T07:45:45.557Z,9.11
2023-03-26T07:48:27.754Z,9.10
2023-03-26T07:50:56.873Z,9.12
2023-03-26T07:53:25.076Z,9.09
2023-03-26T07:56:17.484Z,9.08
2023-03-26T07:59:26.508Z,9.11
2023-03-26T08:02:34.214Z,9.06
2023-03-26T08:05:35.970Z,9.20
2023-03-26T08:08:20.150Z,9.08
2023-03-26T08:11:32.911Z,9.06
2023-03-26T08:14:44.589Z,9.09
2023-03-26T08:20:56.056Z,9.09
2023-03-26T08:23:50.924Z,9.03
2023-03-26T08:26:58.878Z,9.05
2023-03-26T08:29:59.459Z,9.12
2023-03-26T08:32:29.950Z,9.13
2023-03-26T08:34:57.931Z,9.09
2023-03-26T08:37:28.262Z,9.12
2023-03-26T08:40:02.948Z,9.03
2023-03-26T08:43:04.771Z,9.10
2023-03-26T08:46:10.692Z,9.09
2023-03-26T08:49:18.050Z,9.18
2023-03-26T08:52:30.898Z,9.14
2023-03-26T08:55:39.035Z,9.17
2023-03-26T08:58:44.401Z,9.21
2023-03-26T09:01:42.828Z,9.33
2023-03-26T09:04:29.444Z,9.36
2023-03-26T09:07:41.321Z,9.32
2023-03-26T09:11:04.744Z,9.37
2023-03-26T09:14:10.454Z,9.19
2023-03-26T09:27:26.669Z,9.49
2023-03-26T09:30:05.245Z,9.55
2023-03-26T09:32:50.006Z,9.58
2023-03-26T09:36:00.455Z,9.62
2023-03-26T09:38:56.011Z,9.57
2023-03-26T09:42:10.302Z,9.68
2023-03-26T09:45:38.570Z,9.73
2023-03-26T09:48:51.217Z,9.64
2023-03-26T09:51:46.463Z,9.74
2023-03-26T09:54:51.029Z,9.77
2023-03-26T09:57:54.685Z,9.73
2023-03-26T10:00:48.350Z,9.70
2023-03-26T10:03:30.621Z,9.76
2023-03-26T10:06:24.299Z,9.75
2023-03-26T10:09:01.985Z,9.83
2023-03-26T10:12:16.610Z,9.83
2023-03-26T10:15:23.368Z,9.87
2023-03-26T10:18:39.190Z,9.76
2023-03-26T10:21:39.364Z,9.72
2023-03-26T10:24:14.197Z,9.78
2023-03-26T10:27:08.355Z,9.80
2023-03-26T10:30:16.814Z,9.71
2023-03-26T10:33:22.470Z,9.59
2023-03-26T10:36:29.964Z,9.62
2023-03-26T10:39:36.517Z,9.53
2023-03-26T10:42:41.380Z,9.56
2023-03-26T10:46:01.675Z,9.55
2023-03-26T10:48:42.620Z,9.50
2023-03-26T10:51:51.768Z,9.47
2023-03-26T10:54:45.220Z,9.44
2023-03-26T10:57:32.531Z,9.53
2023-03-26T11:00:27.991Z,9.51
2023-03-26T11:03:37.189Z,9.61
2023-03-26T11:06:16.255Z,9.54
2023-03-26T11:09:00.030Z,9.46
2023-03-26T11:12:26.816Z,9.36
2023-03-26T11:15:20.842Z,9.40
2023-03-26T11:18:03.523Z,9.40
2023-03-26T11:20:40.591Z,9.33
2023-03-26T11:23:23.158Z,9.36
2023-03-26T11:26:25.793Z,9.29
2023-03-26T11:29:32.506Z,9.19
2023-03-26T11:32:15.116Z,9.32
2023-03-26T11:35:39.730Z,9.12
2023-03-26T11:38:12.656Z,9.00
2023-03-26T11:40:42.381Z,9.05
2023-03-26T11:43:14.226Z,9.17
2023-03-26T11:45:45.988Z,9.28
2023-03-26T11:48:19.560Z,9.16
2023-03-26T11:50:49.925Z,9.01
2023-03-26T11:53:19.135Z,9.05
2023-03-26T11:55:55.256Z,8.87
2023-03-26T11:58:34.630Z,8.84
2023-03-26T12:01:05.147Z,8.68
2023-03-26T12:03:32.353Z,8.62
2023-03-26T12:06:09.781Z,8.50
2023-03-26T12:08:48.271Z,8.41
2023-03-26T12:11:17.543Z,8.44
2023-03-26T12:14:04.998Z,8.29
2023-03-26T12:16:32.032Z,8.16
2023-03-26T12:19:22.581Z,8.11
2023-03-26T12:21:53.309Z,8.09
2023-03-26T12:24:30.511Z,8.10
2023-03-26T12:27:02.483Z,8.05
2023-03-26T12:29:34.875Z,8.19
2023-03-26T12:32:10.328Z,8.26
2023-03-26T12:34:38.780Z,8.20
2023-03-26T12:37:07.835Z,8.18
2023-03-26T12:40:10.740Z,8.15
2023-03-26T12:44:46.781Z,8.24
2023-03-26T12:45:24.310Z,8.23
2023-03-26T12:48:02.220Z,8.23
2023-03-26T12:50:55.539Z,8.46
2023-03-26T12:53:45.228Z,8.42
2023-03-26T12:56:40.442Z,8.43
2023-03-26T12:59:44.897Z,8.55
2023-03-26T13:02:32.967Z,8.44
2023-03-26T13:05:37.361Z,8.37
2023-03-26T13:08:42.324Z,8.51
2023-03-26T13:11:33.147Z,8.56
2023-03-26T13:14:16.534Z,8.69
2023-03-26T13:16:57.337Z,8.45
2023-03-26T13:19:48.419Z,8.59
2023-03-26T13:23:00.109Z,8.62
2023-03-26T13:25:38.462Z,8.73
2023-03-26T13:28:31.220Z,8.77
2023-03-26T13:31:27.099Z,8.81
2023-03-26T13:34:16.597Z,8.83
2023-03-26T13:37:49.210Z,8.88
2023-03-26T13:40:25.782Z,8.91
2023-03-26T13:43:41.304Z,8.91
2023-03-26T13:46:31.464Z,9.04
2023-03-26T13:49:01.267Z,8.91
2023-03-26T13:51:40.303Z,9.02
2023-03-26T13:54:22.505Z,9.09
2023-03-26T13:57:03.486Z,8.79
2023-03-26T14:00:10.253Z,8.82
2023-03-26T14:02:43.107Z,8.63
2023-03-26T14:05:17.436Z,8.69
2023-03-26T14:07:52.829Z,8.67
2023-03-26T14:10:25.753Z,8.81
2023-03-26T14:13:25.798Z,8.97
2023-03-26T14:16:19.399Z,8.88
2023-03-26T14:19:22.640Z,9.00
2023-03-26T14:22:22.209Z,8.98
2023-03-26T14:25:22.783Z,9.01
2023-03-26T14:28:11.817Z,9.07
2023-03-26T14:30:56.949Z,9.03
2023-03-26T14:34:00.518Z,9.01
2023-03-26T14:37:28.232Z,8.88
2023-03-26T14:41:00.751Z,9.17
2023-03-26T14:43:56.822Z,9.09
2023-03-26T14:46:38.580Z,9.23
2023-03-26T14:49:31.448Z,9.21
2023-03-26T14:52:04.450Z,9.24
2023-03-26T14:54:34.819Z,9.13
2023-03-26T14:57:50.121Z,9.21
2023-03-26T15:00:44.462Z,8.99
2023-03-26T15:07:13.203Z,9.33
2023-03-26T15:10:05.873Z,9.22
2023-03-26T15:13:08.382Z,9.51
2023-03-26T15:15:54.003Z,9.46
2023-03-26T15:19:00.364Z,9.62
2023-03-26T15:21:57.576Z,9.63
2023-03-26T15:25:08.187Z,9.72
2023-03-26T15:28:02.020Z,9.75
2023-03-26T15:31:14.720Z,9.82
2023-03-26T15:34:04.709Z,9.77
2023-03-26T15:37:17.713Z,9.90
2023-03-26T15:43:11.822Z,9.88
2023-03-26T15:46:11.671Z,9.90
2023-03-26T15:49:19.262Z,9.88
2023-03-26T15:52:26.751Z,9.64
2023-03-26T15:55:28.547Z,9.47
2023-03-26T15:58:03.201Z,9.56
2023-03-26T16:00:34.916Z,9.58
2023-03-26T16:03:16.860Z,9.59
2023-03-26T16:06:22.814Z,9.55
2023-03-26T16:09:04.551Z,9.30
2023-03-26T16:12:25.221Z,9.27
2023-03-26T16:15:21.590Z,9.25
2023-03-26T16:18:16.799Z,9.32
2023-03-26T16:20:54.328Z,9.41
2023-03-26T16:23:59.152Z,9.35
2023-03-26T16:26:52.802Z,9.37
2023-03-26T16:29:26.574Z,9.29
2023-03-26T16:32:22.800Z,9.23
2023-03-26T16:34:58.834Z,9.73
2023-03-26T16:37:40.360Z,9.81
2023-03-26T16:46:43.911Z,9.68
2023-03-26T16:49:16.770Z,9.89
2023-03-26T16:52:43.953Z,10.09
2023-03-26T17:24:15.293Z,8.98
2023-03-26T17:27:02.086Z,8.99
2023-03-26T17:30:08.181Z,9.02
2023-03-26T17:33:18.908Z,8.86
2023-03-26T17:35:48.443Z,8.88
2023-03-26T17:38:18.666Z,8.95
2023-03-26T17:40:59.346Z,8.95
2023-03-26T17:43:56.820Z,8.92
2023-03-26T17:46:46.009Z,8.95
2023-03-26T17:49:23.748Z,8.88
2023-03-26T17:52:16.657Z,8.83
2023-03-26T17:54:52.148Z,8.80
2023-03-26T17:57:42.268Z,8.86
2023-03-26T18:00:17.145Z,8.74
2023-03-26T18:02:57.869Z,8.72
2023-03-26T18:05:28.121Z,8.72
2023-03-26T18:08:16.906Z,8.71
2023-03-26T18:11:08.304Z,8.62
2023-03-26T18:14:02.464Z,8.50
2023-03-26T18:16:37.682Z,8.66
2023-03-26T18:19:18.637Z,8.60
2023-03-26T18:21:49.329Z,8.67
2023-03-26T18:24:28.743Z,8.57
2023-03-26T18:26:59.214Z,8.59
2023-03-26T18:29:29.028Z,8.52
2023-03-26T18:32:22.456Z,8.42
2023-03-26T18:34:54.002Z,8.15
2023-03-26T18:37:24.808Z,8.25
2023-03-26T18:40:20.407Z,8.13
2023-03-26T18:42:56.505Z,8.16
2023-03-26T18:45:34.465Z,8.25
2023-03-26T18:48:04.368Z,8.18
2023-03-26T18:50:37.132Z,8.14
2023-03-26T18:53:06.176Z,8.11
2023-03-26T18:55:39.673Z,8.16
2023-03-26T18:58:22.890Z,8.24
2023-03-26T19:00:53.155Z,8.19
2023-03-26T19:03:22.694Z,8.29
2023-03-26T19:05:52.294Z,8.30
2023-03-26T19:08:19.501Z,8.33
2023-03-26T19:10:48.791Z,8.31
2023-03-26T19:13:16.006Z,8.20
2023-03-26T19:15:44.601Z,8.09
2023-03-26T19:18:17.620Z,8.05
2023-03-26T19:20:50.317Z,8.12
2023-03-26T19:23:23.289Z,8.07
2023-03-26T19:25:52.674Z,8.08
2023-03-26T19:28:26.198Z,8.08
2023-03-26T19:30:58.684Z,8.12
2023-03-26T19:33:34.116Z,8.14
2023-03-26T19:36:17.047Z,7.92
2023-03-26T19:38:51.931Z,7.74
2023-03-26T19:41:22.629Z,7.74
2023-03-26T19:43:51.752Z,7.74
2023-03-26T19:46:22.224Z,7.83
2023-03-26T19:48:53.066Z,7.78
2023-03-26T19:51:26.007Z,7.86
2023-03-26T19:53:58.676Z,7.48
2023-03-26T19:56:26.050Z,7.55
2023-03-26T19:58:53.299Z,7.58
2023-03-26T20:01:24.135Z,7.75
2023-03-26T20:03:53.219Z,7.55
2023-03-26T20:06:28.116Z,7.49
2023-03-26T20:09:01.477Z,7.47
2023-03-26T20:11:33.972Z,7.41
2023-03-26T20:14:01.631Z,7.29
2023-03-26T20:16:33.808Z,7.21
2023-03-26T20:19:04.827Z,7.27
2023-03-26T20:21:38.511Z,7.20
2023-03-26T20:24:11.642Z,7.16
2023-03-26T20:26:38.448Z,7.18
2023-03-26T20:29:05.985Z,7.25
2023-03-26T20:31:33.167Z,7.11
2023-03-26T20:34:00.146Z,7.03
2023-03-26T20:36:33.419Z,7.11
2023-03-26T20:39:03.064Z,7.01
2023-03-26T20:41:29.802Z,7.10
2023-03-26T20:43:57.187Z,6.96
2023-03-26T20:46:31.653Z,7.01
2023-03-26T20:49:00.076Z,7.05
2023-03-26T20:51:29.101Z,7.03
2023-03-26T20:53:56.503Z,6.99
2023-03-26T20:56:23.785Z,6.95
2023-03-26T20:59:03.631Z,6.98
2023-03-26T21:01:38.321Z,6.93
2023-03-26T21:04:05.399Z,6.82
2023-03-26T21:06:32.477Z,6.97
2023-03-26T21:08:59.595Z,6.93
2023-03-26T21:11:46.077Z,7.00
2023-03-26T21:14:41.977Z,6.84
2023-03-26T21:17:20.063Z,6.83
2023-03-26T21:19:47.594Z,6.75
2023-03-26T21:23:16.510Z,6.59
2023-03-26T21:26:06.644Z,6.60
2023-03-26T21:28:46.875Z,6.50
2023-03-26T21:31:16.016Z,6.35
2023-03-26T21:33:42.970Z,6.36
2023-03-26T21:36:11.108Z,6.24
2023-03-26T21:38:39.009Z,6.15
2023-03-26T21:41:06.412Z,6.14
2023-03-26T21:43:33.371Z,6.05
2023-03-26T21:46:00.738Z,6.12
2023-03-26T21:48:29.451Z,6.12
2023-03-26T21:51:02.586Z,6.05
2023-03-26T21:53:29.795Z,6.01
2023-03-26T21:56:38.823Z,5.92
2023-03-26T21:59:31.796Z,5.85
2023-03-26T22:02:06.229Z,5.94
2023-03-26T22:04:37.289Z,5.98
2023-03-26T22:07:13.337Z,6.00
2023-03-26T22:09:40.851Z,5.93
2023-03-26T22:12:08.001Z,6.13
2023-03-26T22:14:34.731Z,5.84
2023-03-26T22:17:01.801Z,5.87
2023-03-26T22:19:30.270Z,5.94
2023-03-26T22:21:58.526Z,5.80
2023-03-26T22:24:25.388Z,5.76
2023-03-26T22:26:52.193Z,5.76
2023-03-26T22:29:19.497Z,5.62
2023-03-26T22:31:46.945Z,5.67
2023-03-26T22:34:13.836Z,5.62
2023-03-26T22:36:40.644Z,5.56
2023-03-26T22:39:07.534Z,5.61
2023-03-26T22:41:34.861Z,5.52
2023-03-26T22:44:16.744Z,5.66
2023-03-26T22:46:49.646Z,5.67
2023-03-26T22:49:16.821Z,5.57
2023-03-26T22:51:43.866Z,5.44
2023-03-26T22:54:10.620Z,5.35
2023-03-26T22:56:38.193Z,5.20
2023-03-26T22:59:05.063Z,5.12
2023-03-26T23:01:32.401Z,5.33
2023-03-26T23:03:59.245Z,5.19
2023-03-26T23:06:26.117Z,5.18
2023-03-26T23:08:54.899Z,5.22
2023-03-26T23:11:23.657Z,5.06
2023-03-26T23:13:50.792Z,5.11
2023-03-26T23:16:19.319Z,4.98
2023-03-26T23:18:46.388Z,5.07
2023-03-26T23:21:22.793Z,5.13
2023-03-26T23:23:50.209Z,5.04
2023-03-26T23:26:17.182Z,5.06
2023-03-26T23:28:43.988Z,5.02
2023-03-26T23:31:13.066Z,4.98
2023-03-26T23:33:46.281Z,5.11
2023-03-26T23:36:18.553Z,5.00
2023-03-26T23:38:49.253Z,4.87
2023-03-26T23:41:22.036Z,4.92
2023-03-26T23:43:54.797Z,5.04
2023-03-26T23:46:34.914Z,4.99
2023-03-26T23:49:04.989Z,5.09
2023-03-26T23:51:32.754Z,5.16
2023-03-26T23:54:00.518Z,4.96
2023-03-26T23:56:30.553Z,4.83
2023-03-26T23:58:58.794Z,4.94
